createdAt,value
2023-05-04T00:00:14.584Z,95539.00
2023-05-04T00:01:14.614Z,95543.00
2023-05-04T00:02:14.661Z,95545.00
2023-05-04T00:03:14.767Z,95543.00
2023-05-04T00:04:14.816Z,95541.00
2023-05-04T00:05:14.726Z,95541.00
2023-05-04T00:06:14.713Z,95541.00
2023-05-04T00:07:14.724Z,95545.00
2023-05-04T00:08:14.716Z,95541.00
2023-05-04T00:09:14.680Z,95545.00
2023-05-04T00:10:14.758Z,95543.00
2023-05-04T00:11:14.831Z,95543.00
2023-05-04T00:12:14.943Z,95543.00
2023-05-04T00:13:15.070Z,95541.00
2023-05-04T00:14:15.094Z,95541.00
2023-05-04T00:15:15.181Z,95535.00
2023-05-04T00:16:15.224Z,95537.00
2023-05-04T00:17:15.209Z,95537.00
2023-05-04T00:18:15.187Z,95539.00
2023-05-04T00:19:15.192Z,95537.00
2023-05-04T00:20:15.209Z,95537.00
2023-05-04T00:21:15.213Z,95541.00
2023-05-04T00:22:15.181Z,95535.00
2023-05-04T00:23:15.210Z,95537.00
2023-05-04T00:24:15.197Z,95533.00
2023-05-04T00:25:15.196Z,95533.00
2023-05-04T00:26:15.253Z,95531.00
2023-05-04T00:27:15.325Z,95533.00
2023-05-04T00:28:15.428Z,95533.00
2023-05-04T00:29:15.499Z,95535.00
2023-05-04T00:30:15.524Z,95535.00
2023-05-04T00:31:15.515Z,95533.00
2023-05-04T00:32:15.485Z,95533.00
2023-05-04T00:33:15.487Z,95533.00
2023-05-04T00:34:15.501Z,95531.00
2023-05-04T00:35:15.551Z,95535.00
2023-05-04T00:36:15.636Z,95531.00
2023-05-04T00:37:15.614Z,95531.00
2023-05-04T00:38:15.601Z,95531.00
2023-05-04T00:39:15.597Z,95531.00
2023-05-04T00:40:15.572Z,95529.00
2023-05-04T00:41:15.648Z,95527.00
2023-05-04T00:42:15.714Z,95529.00
2023-05-04T00:43:15.744Z,95527.00
2023-05-04T00:44:15.749Z,95529.00
2023-05-04T00:45:15.766Z,95529.00
2023-05-04T00:46:15.816Z,95527.00
2023-05-04T00:47:16.003Z,95531.00
2023-05-04T00:48:15.968Z,95531.00
2023-05-04T00:49:16.053Z,95529.00
2023-05-04T00:50:16.087Z,95529.00
2023-05-04T00:51:16.131Z,95531.00
2023-05-04T00:52:16.224Z,95531.00
2023-05-04T00:53:16.246Z,95529.00
2023-05-04T00:54:16.320Z,95527.00
2023-05-04T00:55:16.365Z,95529.00
2023-05-04T00:56:16.428Z,95527.00
2023-05-04T00:57:16.464Z,95523.00
2023-05-04T00:58:16.522Z,95529.00
2023-05-04T00:59:16.589Z,95527.00
2023-05-04T01:00:16.620Z,95525.00
2023-05-04T01:01:16.701Z,95527.00
2023-05-04T01:02:16.712Z,95523.00
2023-05-04T01:03:16.853Z,95523.00
2023-05-04T01:04:16.803Z,95525.00
2023-05-04T01:05:16.882Z,95527.00
2023-05-04T01:06:16.916Z,95525.00
2023-05-04T01:07:16.950Z,95527.00
2023-05-04T01:08:17.007Z,95525.00
2023-05-04T01:09:17.019Z,95527.00
2023-05-04T01:10:17.067Z,95529.00
2023-05-04T01:11:17.100Z,95527.00
2023-05-04T01:12:17.115Z,95527.00
2023-05-04T01:13:17.278Z,95529.00
2023-05-04T01:14:17.173Z,95527.00
2023-05-04T01:15:17.207Z,95529.00
2023-05-04T01:16:17.305Z,95531.00
2023-05-04T01:17:17.293Z,95527.00
2023-05-04T01:18:17.327Z,95527.00
2023-05-04T01:19:17.356Z,95525.00
2023-05-04T01:20:17.405Z,95525.00
2023-05-04T01:21:17.412Z,95527.00
2023-05-04T01:22:17.486Z,95529.00
2023-05-04T01:23:17.534Z,95533.00
2023-05-04T01:24:17.536Z,95531.00
2023-05-04T01:25:17.592Z,95529.00
2023-05-04T01:26:17.587Z,95531.00
2023-05-04T01:27:17.640Z,95529.00
2023-05-04T01:28:17.685Z,95527.00
2023-05-04T01:29:17.731Z,95527.00
2023-05-04T01:30:17.721Z,95529.00
2023-05-04T01:31:17.786Z,95527.00
2023-05-04T01:32:17.892Z,95527.00
2023-05-04T01:33:17.879Z,95529.00
2023-05-04T01:34:17.894Z,95527.00
2023-05-04T01:35:17.885Z,95527.00
2023-05-04T01:36:17.933Z,95525.00
2023-05-04T01:37:17.936Z,95527.00
2023-05-04T01:38:18.016Z,95527.00
2023-05-04T01:39:18.055Z,95529.00
2023-05-04T01:40:18.049Z,95533.00
2023-05-04T01:41:18.127Z,95533.00
2023-05-04T01:42:18.146Z,95531.00
2023-05-04T01:43:18.178Z,95535.00
2023-05-04T01:44:18.201Z,95533.00
2023-05-04T01:45:18.226Z,95533.00
2023-05-04T01:46:18.272Z,95531.00
2023-05-04T01:47:18.301Z,95529.00
2023-05-04T01:48:18.339Z,95529.00
2023-05-04T01:49:18.387Z,95531.00
2023-05-04T01:50:18.422Z,95527.00
2023-05-04T01:51:18.436Z,95527.00
2023-05-04T01:52:18.458Z,95527.00
2023-05-04T01:53:18.493Z,95527.00
2023-05-04T01:54:18.530Z,95531.00
2023-05-04T01:55:18.568Z,95531.00
2023-05-04T01:56:18.592Z,95531.00
2023-05-04T01:57:18.592Z,95533.00
2023-05-04T01:58:18.688Z,95533.00
2023-05-04T01:59:18.753Z,95531.00
2023-05-04T02:00:18.725Z,95531.00
2023-05-04T02:01:18.766Z,95529.00
2023-05-04T02:02:18.737Z,95533.00
2023-05-04T02:03:18.830Z,95531.00
2023-05-04T02:04:18.945Z,95531.00
2023-05-04T02:05:18.837Z,95533.00
2023-05-04T02:06:18.849Z,95537.00
2023-05-04T02:07:18.884Z,95533.00
2023-05-04T02:08:18.949Z,95535.00
2023-05-04T02:09:18.965Z,95535.00
2023-05-04T02:10:18.974Z,95535.00
2023-05-04T02:11:18.986Z,95535.00
2023-05-04T02:12:19.017Z,95537.00
2023-05-04T02:13:19.044Z,95535.00
2023-05-04T02:14:19.075Z,95535.00
2023-05-04T02:15:19.099Z,95533.00
2023-05-04T02:16:19.165Z,95533.00
2023-05-04T02:17:19.172Z,95531.00
2023-05-04T02:18:19.172Z,95535.00
2023-05-04T02:19:19.239Z,95533.00
2023-05-04T02:20:19.235Z,95535.00
2023-05-04T02:21:19.249Z,95533.00
2023-05-04T02:22:19.294Z,95533.00
2023-05-04T02:23:19.323Z,95537.00
2023-05-04T02:24:19.310Z,95535.00
2023-05-04T02:25:19.296Z,95531.00
2023-05-04T02:26:19.272Z,95529.00
2023-05-04T02:27:19.294Z,95533.00
2023-05-04T02:28:19.364Z,95531.00
2023-05-04T02:29:19.414Z,95531.00
2023-05-04T02:30:19.372Z,95529.00
2023-05-04T02:31:19.418Z,95535.00
2023-05-04T02:32:19.422Z,95531.00
2023-05-04T02:33:19.428Z,95537.00
2023-05-04T02:34:19.436Z,95533.00
2023-05-04T02:35:19.452Z,95533.00
2023-05-04T02:36:19.496Z,95535.00
2023-05-04T02:37:19.458Z,95537.00
2023-05-04T02:38:19.505Z,95537.00
2023-05-04T02:39:19.522Z,95539.00
2023-05-04T02:40:19.518Z,95539.00
2023-05-04T02:41:19.516Z,95537.00
2023-05-04T02:42:19.594Z,95537.00
2023-05-04T02:43:19.568Z,95535.00
2023-05-04T02:44:19.655Z,95535.00
2023-05-04T02:45:19.585Z,95535.00
2023-05-04T02:46:19.685Z,95535.00
2023-05-04T02:47:19.632Z,95537.00
2023-05-04T02:48:19.654Z,95539.00
2023-05-04T02:49:19.653Z,95539.00
2023-05-04T02:50:19.655Z,95541.00
2023-05-04T02:51:19.684Z,95539.00
2023-05-04T02:52:19.704Z,95539.00
2023-05-04T02:53:19.718Z,95541.00
2023-05-04T02:54:19.704Z,95541.00
2023-05-04T02:55:19.733Z,95541.00
2023-05-04T02:56:19.743Z,95539.00
2023-05-04T02:57:19.749Z,95539.00
2023-05-04T02:58:19.809Z,95539.00
2023-05-04T02:59:19.770Z,95539.00
2023-05-04T03:00:19.818Z,95535.00
2023-05-04T03:01:19.836Z,95537.00
2023-05-04T03:02:19.820Z,95537.00
2023-05-04T03:03:19.877Z,95539.00
2023-05-04T03:04:19.933Z,95539.00
2023-05-04T03:05:19.928Z,95539.00
2023-05-04T03:06:19.908Z,95535.00
2023-05-04T03:07:19.935Z,95537.00
2023-05-04T03:08:19.929Z,95539.00
2023-05-04T03:09:19.922Z,95539.00
2023-05-04T03:10:19.943Z,95539.00
2023-05-04T03:11:19.937Z,95541.00
2023-05-04T03:12:19.961Z,95543.00
2023-05-04T03:13:19.976Z,95541.00
2023-05-04T03:14:20.019Z,95541.00
2023-05-04T03:15:20.028Z,95541.00
2023-05-04T03:16:20.092Z,95541.00
2023-05-04T03:17:20.040Z,95541.00
2023-05-04T03:18:20.045Z,95543.00
2023-05-04T03:19:20.060Z,95543.00
2023-05-04T03:20:20.038Z,95543.00
2023-05-04T03:21:20.068Z,95543.00
2023-05-04T03:22:20.075Z,95545.00
2023-05-04T03:23:20.095Z,95543.00
2023-05-04T03:24:20.102Z,95545.00
2023-05-04T03:25:20.099Z,95545.00
2023-05-04T03:26:20.085Z,95547.00
2023-05-04T03:27:20.092Z,95545.00
2023-05-04T03:28:20.088Z,95550.00
2023-05-04T03:29:20.126Z,95545.00
2023-05-04T03:30:20.131Z,95547.00
2023-05-04T03:31:20.182Z,95549.00
2023-05-04T03:32:20.139Z,95545.00
2023-05-04T03:33:20.123Z,95547.00
2023-05-04T03:34:20.161Z,95550.00
2023-05-04T03:35:24.762Z,95549.00
2023-05-04T03:36:21.130Z,95547.00
2023-05-04T03:37:20.125Z,95549.00
2023-05-04T03:38:20.116Z,95549.00
2023-05-04T03:39:20.117Z,95549.00
2023-05-04T03:40:20.136Z,95549.00
2023-05-04T03:41:20.111Z,95552.00
2023-05-04T03:42:20.096Z,95547.00
2023-05-04T03:43:20.097Z,95552.00
2023-05-04T03:44:20.137Z,95549.00
2023-05-04T03:45:20.073Z,95552.00
2023-05-04T03:46:20.103Z,95549.00
2023-05-04T03:47:20.079Z,95552.00
2023-05-04T03:48:20.067Z,95552.00
2023-05-04T03:49:20.048Z,95552.00
2023-05-04T03:50:20.076Z,95552.00
2023-05-04T03:51:20.097Z,95552.00
2023-05-04T03:52:20.037Z,95556.00
2023-05-04T03:53:20.045Z,95552.00
2023-05-04T03:54:20.023Z,95549.00
2023-05-04T03:55:20.024Z,95552.00
2023-05-04T03:56:19.997Z,95552.00
2023-05-04T03:57:20.010Z,95550.00
2023-05-04T03:58:19.962Z,95549.00
2023-05-04T03:59:19.973Z,95549.00
2023-05-04T04:00:20.004Z,95549.00
2023-05-04T04:01:20.002Z,95550.00
2023-05-04T04:02:19.969Z,95549.00
2023-05-04T04:03:20.086Z,95549.00
2023-05-04T04:04:19.980Z,95552.00
2023-05-04T04:05:19.981Z,95552.00
2023-05-04T04:06:19.936Z,95552.00
2023-05-04T04:07:19.976Z,95552.00
2023-05-04T04:08:19.915Z,95550.00
2023-05-04T04:09:19.906Z,95549.00
2023-05-04T04:10:19.872Z,95554.00
2023-05-04T04:11:19.891Z,95552.00
2023-05-04T04:12:19.870Z,95552.00
2023-05-04T04:13:20.026Z,95554.00
2023-05-04T04:14:19.851Z,95550.00
2023-05-04T04:15:19.836Z,95552.00
2023-05-04T04:16:19.910Z,95552.00
2023-05-04T04:17:19.831Z,95554.00
2023-05-04T04:18:19.842Z,95552.00
2023-05-04T04:19:19.822Z,95550.00
2023-05-04T04:20:19.822Z,95552.00
2023-05-04T04:21:19.815Z,95554.00
2023-05-04T04:22:19.801Z,95552.00
2023-05-04T04:23:19.840Z,95552.00
2023-05-04T04:24:19.824Z,95552.00
2023-05-04T04:25:19.809Z,95552.00
2023-05-04T04:26:19.834Z,95552.00
2023-05-04T04:27:19.838Z,95554.00
2023-05-04T04:28:19.826Z,95552.00
2023-05-04T04:29:19.822Z,95554.00
2023-05-04T04:30:19.818Z,95552.00
2023-05-04T04:31:19.864Z,95556.00
2023-05-04T04:32:19.788Z,95550.00
2023-05-04T04:33:19.790Z,95554.00
2023-05-04T04:34:19.798Z,95554.00
2023-05-04T04:35:19.801Z,95554.00
2023-05-04T04:36:19.813Z,95552.00
2023-05-04T04:37:19.785Z,95552.00
2023-05-04T04:38:19.801Z,95550.00
2023-05-04T04:39:19.933Z,95550.00
2023-05-04T04:40:19.845Z,95550.00
2023-05-04T04:41:19.813Z,95550.00
2023-05-04T04:42:19.841Z,95549.00
2023-05-04T04:43:19.788Z,95550.00
2023-05-04T04:44:19.809Z,95550.00
2023-05-04T04:45:19.802Z,95549.00
2023-05-04T04:46:19.875Z,95550.00
2023-05-04T04:47:19.803Z,95550.00
2023-05-04T04:48:19.806Z,95550.00
2023-05-04T04:49:19.814Z,95552.00
2023-05-04T04:50:19.806Z,95550.00
2023-05-04T04:51:19.779Z,95552.00
2023-05-04T04:52:19.778Z,95552.00
2023-05-04T04:53:19.807Z,95552.00
2023-05-04T04:54:19.784Z,95552.00
2023-05-04T04:55:19.800Z,95552.00
2023-05-04T04:56:19.782Z,95552.00
2023-05-04T04:57:19.780Z,95552.00
2023-05-04T04:58:19.794Z,95552.00
2023-05-04T04:59:19.814Z,95550.00
2023-05-04T05:00:19.800Z,95554.00
2023-05-04T05:01:19.900Z,95554.00
2023-05-04T05:02:19.816Z,95554.00
2023-05-04T05:03:19.809Z,95552.00
2023-05-04T05:04:19.851Z,95552.00
2023-05-04T05:05:19.830Z,95552.00
2023-05-04T05:06:19.844Z,95554.00
2023-05-04T05:07:19.828Z,95552.00
2023-05-04T05:08:19.840Z,95552.00
2023-05-04T05:09:19.847Z,95556.00
2023-05-04T05:10:20.031Z,95556.00
2023-05-04T05:11:19.860Z,95556.00
2023-05-04T05:12:19.859Z,95556.00
2023-05-04T05:13:19.875Z,95552.00
2023-05-04T05:14:19.820Z,95556.00
2023-05-04T05:15:19.842Z,95554.00
2023-05-04T05:16:19.883Z,95554.00
2023-05-04T05:17:19.811Z,95552.00
2023-05-04T05:18:19.809Z,95552.00
2023-05-04T05:19:19.812Z,95554.00
2023-05-04T05:20:19.830Z,95550.00
2023-05-04T05:21:19.821Z,95554.00
2023-05-04T05:22:19.846Z,95556.00
2023-05-04T05:23:19.872Z,95554.00
2023-05-04T05:24:19.911Z,95552.00
2023-05-04T05:25:19.817Z,95554.00
2023-05-04T05:26:19.821Z,95552.00
2023-05-04T05:27:19.890Z,95552.00
2023-05-04T05:28:19.810Z,95552.00
2023-05-04T05:29:19.817Z,95552.00
2023-05-04T05:30:20.043Z,95550.00
2023-05-04T05:31:19.872Z,95550.00
2023-05-04T05:32:19.821Z,95550.00
2023-05-04T05:33:19.845Z,95550.00
2023-05-04T05:34:19.866Z,95550.00
2023-05-04T05:35:20.037Z,95550.00
2023-05-04T05:36:19.989Z,95549.00
2023-05-04T05:37:19.932Z,95554.00
2023-05-04T05:38:20.018Z,95550.00
2023-05-04T05:39:20.111Z,95552.00
2023-05-04T05:40:20.526Z,95552.00
2023-05-04T05:41:20.225Z,95550.00
2023-05-04T05:42:20.235Z,95552.00
2023-05-04T05:43:20.307Z,95552.00
2023-05-04T05:44:20.300Z,95552.00
2023-05-04T05:45:27.572Z,95552.00
2023-05-04T05:46:20.389Z,95550.00
2023-05-04T05:47:20.324Z,95550.00
2023-05-04T05:48:20.303Z,95550.00
2023-05-04T05:49:20.294Z,95552.00
2023-05-04T05:50:20.317Z,95554.00
2023-05-04T05:51:20.285Z,95552.00
2023-05-04T05:52:20.272Z,95552.00
2023-05-04T05:53:20.285Z,95550.00
2023-05-04T05:54:20.260Z,95552.00
2023-05-04T05:55:20.227Z,95550.00
2023-05-04T05:56:20.258Z,95550.00
2023-05-04T05:57:20.247Z,95549.00
2023-05-04T05:58:20.273Z,95550.00
2023-05-04T05:59:20.596Z,95547.00
2023-05-04T06:00:20.191Z,95549.00
2023-05-04T06:01:20.192Z,95550.00
2023-05-04T06:02:20.353Z,95550.00
2023-05-04T06:03:20.293Z,95549.00
2023-05-04T06:04:20.202Z,95549.00
2023-05-04T06:05:20.194Z,95547.00
2023-05-04T06:06:20.231Z,95545.00
2023-05-04T06:07:20.149Z,95549.00
2023-05-04T06:08:20.165Z,95549.00
2023-05-04T06:09:20.136Z,95550.00
2023-05-04T06:10:20.140Z,95549.00
2023-05-04T06:11:20.171Z,95547.00
2023-05-04T06:12:20.211Z,95547.00
2023-05-04T06:13:20.303Z,95545.00
2023-05-04T06:14:20.328Z,95543.00
2023-05-04T06:15:20.340Z,95549.00
2023-05-04T06:16:20.404Z,95547.00
2023-05-04T06:17:20.410Z,95545.00
2023-05-04T06:18:20.473Z,95545.00
2023-05-04T06:19:20.466Z,95543.00
2023-05-04T06:20:20.516Z,95541.00
2023-05-04T06:21:20.563Z,95537.00
2023-05-04T06:22:20.561Z,95539.00
2023-05-04T06:23:20.607Z,95539.00
2023-05-04T06:24:20.645Z,95535.00
2023-05-04T06:25:20.679Z,95537.00
2023-05-04T06:26:20.705Z,95535.00
2023-05-04T06:27:22.184Z,95537.00
2023-05-04T06:28:20.733Z,95535.00
2023-05-04T06:29:20.769Z,95531.00
2023-05-04T06:30:20.828Z,95531.00
2023-05-04T06:31:20.884Z,95531.00
2023-05-04T06:32:20.867Z,95533.00
2023-05-04T06:33:20.937Z,95531.00
2023-05-04T06:34:20.921Z,95529.00
2023-05-04T06:35:20.966Z,95527.00
2023-05-04T06:36:21.029Z,95529.00
2023-05-04T06:37:21.005Z,95525.00
2023-05-04T06:38:21.054Z,95523.00
2023-05-04T06:39:21.104Z,95529.00
2023-05-04T06:40:21.128Z,95529.00
2023-05-04T06:41:21.647Z,95527.00
2023-05-04T06:42:21.232Z,95529.00
2023-05-04T06:43:21.262Z,95527.00
2023-05-04T06:44:21.298Z,95529.00
2023-05-04T06:45:21.323Z,95525.00
2023-05-04T06:46:21.486Z,95523.00
2023-05-04T06:47:21.389Z,95523.00
2023-05-04T06:48:21.392Z,95519.00
2023-05-04T06:49:21.434Z,95517.00
2023-05-04T06:50:21.480Z,95517.00
2023-05-04T06:51:21.584Z,95515.00
2023-05-04T06:52:21.583Z,95511.00
2023-05-04T06:53:21.558Z,95511.00
2023-05-04T06:54:21.600Z,95511.00
2023-05-04T06:55:21.630Z,95513.00
2023-05-04T06:56:21.672Z,95509.00
2023-05-04T06:57:21.654Z,95511.00
2023-05-04T06:58:21.703Z,95511.00
2023-05-04T06:59:21.719Z,95509.00
2023-05-04T07:00:21.711Z,95509.00
2023-05-04T07:01:21.819Z,95509.00
2023-05-04T07:02:21.754Z,95503.00
2023-05-04T07:03:21.828Z,95507.00
2023-05-04T07:04:21.788Z,95505.00
2023-05-04T07:05:21.794Z,95503.00
2023-05-04T07:06:21.826Z,95502.00
2023-05-04T07:07:21.804Z,95503.00
2023-05-04T07:08:21.819Z,95502.00
2023-05-04T07:09:21.876Z,95502.00
2023-05-04T07:10:21.810Z,95500.00
2023-05-04T07:11:21.809Z,95498.00
2023-05-04T07:12:21.838Z,95498.00
2023-05-04T07:13:21.843Z,95500.00
2023-05-04T07:14:21.862Z,95498.00
2023-05-04T07:15:21.864Z,95496.00
2023-05-04T07:16:22.089Z,95496.00
2023-05-04T07:17:21.987Z,95496.00
2023-05-04T07:18:21.873Z,95494.00
2023-05-04T07:19:21.869Z,95492.00
2023-05-04T07:20:24.231Z,95490.00
2023-05-04T07:21:28.232Z,95492.00
2023-05-04T07:22:22.883Z,95490.00
2023-05-04T07:23:21.882Z,95490.00
2023-05-04T07:24:21.871Z,95488.00
2023-05-04T07:25:21.880Z,95488.00
2023-05-04T07:26:22.135Z,95490.00
2023-05-04T07:27:21.865Z,95488.00
2023-05-04T07:28:21.829Z,95486.00
2023-05-04T07:29:21.846Z,95486.00
2023-05-04T07:30:21.876Z,95484.00
2023-05-04T07:31:21.831Z,95480.00
2023-05-04T07:32:21.958Z,95482.00
2023-05-04T07:33:21.861Z,95480.00
2023-05-04T07:34:25.299Z,95480.00
2023-05-04T07:35:22.865Z,95478.00
2023-05-04T07:36:21.796Z,95476.00
2023-05-04T07:37:22.099Z,95478.00
2023-05-04T07:38:21.756Z,95470.00
2023-05-04T07:39:21.776Z,95470.00
2023-05-04T07:41:06.377Z,95468.00
2023-05-04T07:42:06.364Z,95464.00
2023-05-04T07:43:06.360Z,95462.00
2023-05-04T07:44:06.337Z,95464.00
2023-05-04T07:45:06.349Z,95462.00
2023-05-04T07:46:06.423Z,95462.00
2023-05-04T07:47:06.402Z,95455.00
2023-05-04T07:48:06.437Z,95455.00
2023-05-04T07:49:06.447Z,95451.00
2023-05-04T07:50:06.606Z,95451.00
2023-05-04T07:51:06.450Z,95451.00
2023-05-04T07:52:06.461Z,95449.00
2023-05-04T07:53:07.096Z,95449.00
2023-05-04T07:54:06.555Z,95443.00
2023-05-04T07:55:06.631Z,95443.00
2023-05-04T07:56:06.653Z,95437.00
2023-05-04T07:57:06.737Z,95439.00
2023-05-04T07:58:06.758Z,95435.00
2023-05-04T07:59:06.823Z,95439.00
2023-05-04T08:00:07.059Z,95435.00
2023-05-04T08:01:06.994Z,95435.00
2023-05-04T08:02:07.148Z,95431.00
2023-05-04T08:03:07.131Z,95433.00
2023-05-04T08:04:07.122Z,95431.00
2023-05-04T08:05:07.187Z,95425.00
2023-05-04T08:06:07.298Z,95423.00
2023-05-04T08:07:07.321Z,95421.00
2023-05-04T08:08:07.378Z,95421.00
2023-05-04T08:09:07.484Z,95421.00
2023-05-04T08:10:07.497Z,95423.00
2023-05-04T08:11:19.371Z,95421.00
2023-05-04T08:12:08.526Z,95417.00
2023-05-04T08:13:07.593Z,95419.00
2023-05-04T08:14:07.514Z,95419.00
2023-05-04T08:15:07.505Z,95415.00
2023-05-04T08:16:07.479Z,95417.00
2023-05-04T08:17:07.499Z,95417.00
2023-05-04T08:18:07.539Z,95415.00
2023-05-04T08:19:07.483Z,95413.00
2023-05-04T08:20:07.462Z,95413.00
2023-05-04T08:21:07.462Z,95415.00
2023-05-04T08:22:07.605Z,95415.00
2023-05-04T08:23:07.619Z,95413.00
2023-05-04T08:24:07.596Z,95411.00
2023-05-04T08:25:08.083Z,95411.00
2023-05-04T08:26:07.654Z,95411.00
2023-05-04T08:27:09.792Z,95409.00
2023-05-04T08:28:07.767Z,95407.00
2023-05-04T08:29:07.825Z,95407.00
2023-05-04T08:30:07.844Z,95407.00
2023-05-04T08:31:07.916Z,95407.00
2023-05-04T08:32:08.118Z,95407.00
2023-05-04T08:33:08.034Z,95405.00
2023-05-04T08:34:08.001Z,95407.00
2023-05-04T08:35:08.110Z,95403.00
2023-05-04T08:36:08.079Z,95401.00
2023-05-04T08:37:08.636Z,95394.00
2023-05-04T08:38:08.171Z,95401.00
2023-05-04T08:39:08.279Z,95392.00
2023-05-04T08:40:08.282Z,95390.00
2023-05-04T08:41:08.330Z,95390.00
2023-05-04T08:42:08.388Z,95388.00
2023-05-04T08:43:08.389Z,95388.00
2023-05-04T08:44:08.408Z,95390.00
2023-05-04T08:45:08.363Z,95388.00
2023-05-04T08:46:08.441Z,95384.00
2023-05-04T08:47:08.422Z,95384.00
2023-05-04T08:48:08.606Z,95384.00
2023-05-04T08:49:08.388Z,95382.00
2023-05-04T08:50:08.443Z,95382.00
2023-05-04T08:51:08.432Z,95382.00
2023-05-04T08:52:08.627Z,95382.00
2023-05-04T08:53:08.441Z,95378.00
2023-05-04T08:54:08.414Z,95380.00
2023-05-04T08:55:08.436Z,95376.00
2023-05-04T08:56:08.433Z,95374.00
2023-05-04T08:57:08.632Z,95374.00
2023-05-04T08:58:08.523Z,95374.00
2023-05-04T08:59:08.615Z,95376.00
2023-05-04T09:00:08.673Z,95376.00
2023-05-04T09:01:08.850Z,95374.00
2023-05-04T09:02:09.189Z,95374.00
2023-05-04T09:03:08.900Z,95370.00
2023-05-04T09:04:08.994Z,95374.00
2023-05-04T09:05:08.900Z,95370.00
2023-05-04T09:06:08.960Z,95368.00
2023-05-04T09:07:08.964Z,95366.00
2023-05-04T09:08:09.009Z,95364.00
2023-05-04T09:09:09.045Z,95364.00
2023-05-04T09:10:09.103Z,95364.00
2023-05-04T09:11:09.126Z,95366.00
2023-05-04T09:12:09.625Z,95366.00
2023-05-04T09:13:09.223Z,95366.00
2023-05-04T09:14:09.223Z,95364.00
2023-05-04T09:15:09.262Z,95364.00
2023-05-04T09:16:09.243Z,95366.00
2023-05-04T09:17:09.345Z,95360.00
2023-05-04T09:18:09.310Z,95360.00
2023-05-04T09:19:09.298Z,95358.00
2023-05-04T09:20:09.318Z,95356.00
2023-05-04T09:21:09.298Z,95356.00
2023-05-04T09:22:09.319Z,95354.00
2023-05-04T09:23:09.355Z,95352.00
2023-05-04T09:24:09.332Z,95351.00
2023-05-04T09:25:09.325Z,95352.00
2023-05-04T09:26:09.371Z,95349.00
2023-05-04T09:27:09.372Z,95347.00
2023-05-04T09:28:09.637Z,95347.00
2023-05-04T09:29:09.407Z,95341.00
2023-05-04T09:30:09.378Z,95343.00
2023-05-04T09:31:09.413Z,95341.00
2023-05-04T09:32:09.392Z,95337.00
2023-05-04T09:33:09.432Z,95331.00
2023-05-04T09:34:09.403Z,95331.00
2023-05-04T09:35:10.743Z,95329.00
2023-05-04T09:36:09.385Z,95331.00
2023-05-04T09:37:09.375Z,95327.00
2023-05-04T09:38:09.630Z,95327.00
2023-05-04T09:39:11.161Z,95327.00
2023-05-04T09:40:09.372Z,95329.00
2023-05-04T09:41:09.363Z,95323.00
2023-05-04T09:42:09.353Z,95321.00
2023-05-04T09:43:09.421Z,95323.00
2023-05-04T09:44:09.321Z,95319.00
2023-05-04T09:45:09.412Z,95319.00
2023-05-04T09:46:09.317Z,95319.00
2023-05-04T09:47:09.315Z,95317.00
2023-05-04T09:48:09.328Z,95313.00
2023-05-04T09:49:09.282Z,95311.00
2023-05-04T09:50:09.299Z,95305.00
2023-05-04T09:51:09.286Z,95307.00
2023-05-04T09:52:09.347Z,95307.00
2023-05-04T09:53:09.285Z,95307.00
2023-05-04T09:54:09.296Z,95305.00
2023-05-04T09:55:09.279Z,95305.00
2023-05-04T09:56:09.251Z,95303.00
2023-05-04T09:57:09.246Z,95301.00
2023-05-04T09:58:09.265Z,95298.00
2023-05-04T09:59:09.270Z,95296.00
2023-05-04T10:00:09.235Z,95296.00
2023-05-04T10:01:11.214Z,95296.00
2023-05-04T10:02:18.643Z,95294.00
2023-05-04T10:03:10.318Z,95294.00
2023-05-04T10:04:09.213Z,95294.00
2023-05-04T10:05:09.249Z,95292.00
2023-05-04T10:06:09.418Z,95292.00
2023-05-04T10:07:09.200Z,95294.00
2023-05-04T10:08:09.887Z,95290.00
2023-05-04T10:09:09.360Z,95290.00
2023-05-04T10:10:09.176Z,95288.00
2023-05-04T10:11:09.205Z,95284.00
2023-05-04T10:12:09.208Z,95280.00
2023-05-04T10:13:09.690Z,95272.00
2023-05-04T10:14:09.149Z,95276.00
2023-05-04T10:15:09.145Z,95274.00
2023-05-04T10:16:09.139Z,95268.00
2023-05-04T10:17:09.159Z,95266.00
2023-05-04T10:18:09.162Z,95264.00
2023-05-04T10:19:09.112Z,95264.00
2023-05-04T10:20:09.134Z,95260.00
2023-05-04T10:21:09.125Z,95262.00
2023-05-04T10:22:09.107Z,95258.00
2023-05-04T10:23:09.142Z,95258.00
2023-05-04T10:24:09.112Z,95258.00
2023-05-04T10:25:09.104Z,95258.00
2023-05-04T10:26:09.116Z,95253.00
2023-05-04T10:27:09.119Z,95251.00
2023-05-04T10:28:09.154Z,95256.00
2023-05-04T10:29:09.068Z,95256.00
2023-05-04T10:30:09.772Z,95251.00
2023-05-04T10:31:09.251Z,95251.00
2023-05-04T10:32:09.093Z,95249.00
2023-05-04T10:33:09.098Z,95251.00
2023-05-04T10:34:09.098Z,95245.00
2023-05-04T10:35:09.114Z,95247.00
2023-05-04T10:36:09.135Z,95243.00
2023-05-04T10:37:09.129Z,95243.00
2023-05-04T10:38:09.701Z,95241.00
2023-05-04T10:39:09.173Z,95239.00
2023-05-04T10:40:09.210Z,95239.00
2023-05-04T10:41:09.249Z,95235.00
2023-05-04T10:42:09.250Z,95235.00
2023-05-04T10:43:09.681Z,95235.00
2023-05-04T10:44:09.423Z,95231.00
2023-05-04T10:45:09.344Z,95225.00
2023-05-04T10:46:09.358Z,95231.00
2023-05-04T10:47:09.450Z,95227.00
2023-05-04T10:48:09.907Z,95225.00
2023-05-04T10:49:09.409Z,95227.00
2023-05-04T10:50:09.378Z,95225.00
2023-05-04T10:51:09.393Z,95225.00
2023-05-04T10:52:09.368Z,95219.00
2023-05-04T10:53:09.446Z,95221.00
2023-05-04T10:54:09.339Z,95217.00
2023-05-04T10:55:09.416Z,95215.00
2023-05-04T10:56:09.368Z,95215.00
2023-05-04T10:57:09.374Z,95209.00
2023-05-04T10:58:09.702Z,95211.00
2023-05-04T10:59:09.431Z,95207.00
2023-05-04T11:00:09.458Z,95205.00
2023-05-04T11:01:09.448Z,95205.00
2023-05-04T11:02:09.498Z,95203.00
2023-05-04T11:03:09.607Z,95199.00
2023-05-04T11:04:09.425Z,95201.00
2023-05-04T11:05:09.413Z,95199.00
2023-05-04T11:06:09.428Z,95194.00
2023-05-04T11:07:09.413Z,95198.00
2023-05-04T11:08:09.445Z,95198.00
2023-05-04T11:09:09.455Z,95190.00
2023-05-04T11:10:09.482Z,95188.00
2023-05-04T11:11:09.469Z,95186.00
2023-05-04T11:12:09.420Z,95182.00
2023-05-04T11:13:09.468Z,95184.00
2023-05-04T11:14:09.434Z,95180.00
2023-05-04T11:15:09.447Z,95182.00
2023-05-04T11:16:09.423Z,95186.00
2023-05-04T11:17:26.193Z,95178.00
2023-05-04T11:18:10.459Z,95178.00
2023-05-04T11:19:09.461Z,95176.00
2023-05-04T11:20:09.385Z,95178.00
2023-05-04T11:21:09.394Z,95176.00
2023-05-04T11:22:09.369Z,95174.00
2023-05-04T11:23:09.444Z,95170.00
2023-05-04T11:24:09.375Z,95170.00
2023-05-04T11:25:09.383Z,95172.00
2023-05-04T11:26:09.474Z,95170.00
2023-05-04T11:27:09.378Z,95168.00
2023-05-04T11:28:09.338Z,95168.00
2023-05-04T11:29:09.682Z,95164.00
2023-05-04T11:30:09.342Z,95162.00
2023-05-04T11:31:09.380Z,95164.00
2023-05-04T11:32:09.292Z,95164.00
2023-05-04T11:33:09.336Z,95162.00
2023-05-04T11:34:09.684Z,95156.00
2023-05-04T11:35:09.380Z,95158.00
2023-05-04T11:36:09.282Z,95155.00
2023-05-04T11:37:09.289Z,95155.00
2023-05-04T11:38:09.276Z,95153.00
2023-05-04T11:39:09.252Z,95151.00
2023-05-04T11:40:09.280Z,95149.00
2023-05-04T11:41:09.215Z,95149.00
2023-05-04T11:42:09.235Z,95149.00
2023-05-04T11:43:09.234Z,95151.00
2023-05-04T11:44:09.238Z,95145.00
2023-05-04T11:45:09.220Z,95145.00